Time;durP1;ratioP1;P1;durP2;ratioP2;P2;SDS_P1;SDS_P2;PMS_P1;PMS_P2;Temp;Humidity;BMP_temperature;BMP_pressure;BME280_temperature;BME280_humidity;BME280_pressure;Samples;Min_cycle;Max_cycle;Signal;HPM_P1;HPM_P2
2022/06/07 00:01:32;;;;;;;8.05;5.58;;;;;;;11.87;100.00;100316.33;1754097;81;21055;-89
2022/06/07 00:04:00;;;;;;;10.13;5.67;;;;;;;11.85;100.00;100311.13;1752359;81;21542;-89
2022/06/07 00:06:28;;;;;;;10.13;5.47;;;;;;;11.83;100.00;100314.28;1751885;81;21119;-91
2022/06/07 00:08:55;;;;;;;8.73;5.90;;;;;;;11.81;100.00;100314.80;1752208;81;21117;-91
2022/06/07 00:11:21;;;;;;;8.35;6.22;;;;;;;11.81;100.00;100309.52;1733347;80;21068;-93
2022/06/07 00:13:51;;;;;;;9.53;5.65;;;;;;;11.79;100.00;100310.50;1788306;80;21018;-93
2022/06/07 00:16:19;;;;;;;6.97;5.70;;;;;;;11.77;100.00;100310.55;1788081;80;21119;-91
2022/06/07 00:18:47;;;;;;;8.43;6.25;;;;;;;11.74;100.00;100308.05;1786096;80;21620;-92
2022/06/07 00:21:13;;;;;;;9.83;6.30;;;;;;;11.73;100.00;100307.19;1785532;80;21076;-90
2022/06/07 00:23:40;;;;;;;11.20;5.97;;;;;;;11.72;100.00;100305.92;1785427;80;21060;-91
2022/06/07 00:26:09;;;;;;;8.58;6.10;;;;;;;11.67;100.00;100299.97;1784946;80;21055;-91
2022/06/07 00:28:35;;;;;;;10.03;5.33;;;;;;;11.65;100.00;100304.45;1785363;80;21444;-91
2022/06/07 00:31:02;;;;;;;8.63;5.47;;;;;;;11.64;100.00;100298.75;1812927;78;21044;-90
2022/06/07 00:33:29;;;;;;;10.98;5.97;;;;;;;11.63;100.00;100302.32;1789844;79;21165;-90
2022/06/07 00:35:55;;;;;;;7.72;5.55;;;;;;;11.62;100.00;100298.83;1790183;79;21021;-88
2022/06/07 00:38:22;;;;;;;8.25;6.15;;;;;;;11.61;100.00;100301.52;1787971;80;20980;-90
2022/06/07 00:40:49;;;;;;;8.40;5.70;;;;;;;11.58;100.00;100304.28;1790079;79;21032;-91
2022/06/07 00:43:16;;;;;;;15.23;6.30;;;;;;;11.57;100.00;100299.91;1788343;79;21043;-92
2022/06/07 00:45:42;;;;;;;11.08;5.87;;;;;;;11.53;100.00;100298.72;1789883;79;21086;-92
2022/06/07 00:48:09;;;;;;;10.00;6.20;;;;;;;11.48;100.00;100295.41;1789433;79;21016;-89
2022/06/07 00:50:55;;;;;;;8.78;5.40;;;;;;;11.46;100.00;100302.98;1789914;79;21104;-91
2022/06/07 00:53:28;;;;;;;9.20;5.70;;;;;;;11.42;100.00;100299.58;1789906;79;20973;-91
2022/06/07 00:55:56;;;;;;;7.37;5.35;;;;;;;11.39;100.00;100302.34;1790358;80;20938;-91
2022/06/07 00:58:25;;;;;;;9.98;5.97;;;;;;;11.23;100.00;100303.84;1790108;80;21150;-90
2022/06/07 01:00:53;;;;;;;10.85;5.37;;;;;;;11.16;100.00;100306.27;1790283;79;21021;-91
2022/06/07 01:03:23;;;;;;;9.40;5.80;;;;;;;11.26;100.00;100310.30;1789716;79;21013;-91
2022/06/07 01:05:52;;;;;;;8.27;5.27;;;;;;;11.25;100.00;100309.88;1790506;79;20954;-91
2022/06/07 01:11:08;;;;;;;8.30;6.03;;;;;;;11.25;100.00;100310.77;1790028;79;21176;-92
2022/06/07 01:13:35;;;;;;;13.40;6.12;;;;;;;11.22;100.00;100304.73;1761499;79;21064;-91
2022/06/07 01:16:13;;;;;;;8.15;6.15;;;;;;;11.25;100.00;100308.13;1788949;80;20915;-91
2022/06/07 01:18:41;;;;;;;10.90;5.37;;;;;;;11.13;100.00;100301.54;1790434;79;20962;-89
2022/06/07 01:21:31;;;;;;;12.53;6.03;;;;;;;11.11;100.00;100302.48;1790676;79;20957;-92
2022/06/07 01:23:58;;;;;;;10.43;6.58;;;;;;;11.10;100.00;100304.27;1790446;80;21136;-90
2022/06/07 01:26:27;;;;;;;8.35;6.12;;;;;;;11.09;100.00;100308.30;1790885;79;20953;-91
2022/06/07 01:28:56;;;;;;;8.55;5.78;;;;;;;11.06;100.00;100306.60;1791094;79;20966;-91
2022/06/07 01:31:23;;;;;;;9.60;5.67;;;;;;;11.06;100.00;100303.97;1791113;79;20942;-91
2022/06/07 01:33:53;;;;;;;9.00;5.28;;;;;;;11.07;100.00;100309.66;1766622;79;20954;-90
2022/06/07 01:36:20;;;;;;;9.45;5.50;;;;;;;11.05;100.00;100308.85;1790710;79;21188;-90
2022/06/07 01:41:53;;;;;;;7.47;5.53;;;;;;;11.00;100.00;100306.84;1791202;79;21028;-91
2022/06/07 01:44:04;;;;;;;9.08;6.00;;;;;;;10.98;100.00;100309.98;1788404;80;21033;-90
2022/06/07 01:46:31;;;;;;;8.65;6.10;;;;;;;10.92;100.00;100299.66;1787914;80;20998;-90
2022/06/07 01:48:57;;;;;;;11.95;6.12;;;;;;;10.89;100.00;100306.36;1788675;80;21231;-87
2022/06/07 01:51:24;;;;;;;10.80;6.00;;;;;;;10.87;100.00;100309.51;1790310;80;21353;-88
2022/06/07 01:53:51;;;;;;;10.65;6.65;;;;;;;10.85;100.00;100307.38;1790709;80;20973;-88
2022/06/07 01:56:18;;;;;;;12.65;6.17;;;;;;;10.83;100.00;100305.25;1787157;80;21075;-90
2022/06/07 01:58:46;;;;;;;10.05;5.97;;;;;;;10.81;100.00;100299.17;1786651;80;21055;-91
2022/06/07 02:01:15;;;;;;;13.28;6.65;;;;;;;10.79;100.00;100307.59;1787269;80;21223;-90
2022/06/07 02:03:42;;;;;;;9.33;5.45;;;;;;;10.78;100.00;100309.83;1787059;80;21009;-90
2022/06/07 02:06:12;;;;;;;9.68;6.15;;;;;;;10.71;100.00;100303.45;1786279;80;21021;-89
2022/06/07 02:08:41;;;;;;;;;;;;;;;10.67;100.00;100303.18;1789088;80;21243;-91
2022/06/07 02:11:14;;;;;;;10.25;5.40;;;;;;;10.66;100.00;100301.44;1786294;80;20132;-90
2022/06/07 02:13:42;;;;;;;8.20;5.75;;;;;;;10.59;100.00;100305.20;1786690;80;21243;-89
2022/06/07 02:16:11;;;;;;;10.80;6.20;;;;;;;10.58;100.00;100311.39;1786026;80;21056;-90
2022/06/07 02:18:40;;;;;;;9.33;6.30;;;;;;;10.58;100.00;100311.39;1785645;79;21013;-90
2022/06/07 02:21:11;;;;;;;9.83;5.97;;;;;;;10.61;100.00;100312.59;1783399;80;21088;-91
2022/06/07 02:23:40;;;;;;;12.23;5.80;;;;;;;10.63;100.00;100304.19;1785259;80;21012;-91
2022/06/07 02:26:24;;;;;;;11.78;6.22;;;;;;;10.67;100.00;100303.18;1785028;80;21300;-92
2022/06/07 02:28:59;;;;;;;8.15;6.28;;;;;;;10.71;100.00;100304.77;1785331;80;21068;-91
2022/06/07 02:31:26;;;;;;;16.10;6.25;;;;;;;10.73;100.00;100311.77;1785074;80;21080;-91
2022/06/07 02:33:53;;;;;;;10.18;5.80;;;;;;;10.77;100.00;100305.49;1785327;80;21036;-91
2022/06/07 02:36:20;;;;;;;16.67;6.47;;;;;;;10.82;100.00;100306.19;1785199;80;21056;-92
2022/06/07 02:38:47;;;;;;;11.93;6.37;;;;;;;10.85;100.00;100307.38;1785244;80;21247;-93
2022/06/07 02:41:18;;;;;;;12.13;5.45;;;;;;;10.86;100.00;100308.66;1785053;80;21556;-90
2022/06/07 02:43:47;;;;;;;9.30;5.53;;;;;;;10.94;100.00;100311.01;1757273;80;21531;-89
2022/06/07 02:46:15;;;;;;;10.68;6.40;;;;;;;11.03;100.00;100310.68;1785222;80;21309;-90
2022/06/07 02:48:44;;;;;;;9.40;5.55;;;;;;;11.04;100.00;100305.83;1756894;80;21107;-89
2022/06/07 02:51:11;;;;;;;12.82;6.20;;;;;;;11.17;100.00;100309.33;1785364;80;21182;-92
2022/06/07 02:53:38;;;;;;;7.87;5.78;;;;;;;11.26;100.00;100307.67;1785599;80;21068;-92
2022/06/07 02:56:05;;;;;;;9.88;5.87;;;;;;;11.34;100.00;100299.88;1785391;80;21553;-90
2022/06/07 02:58:35;;;;;;;8.88;5.80;;;;;;;11.49;100.00;100307.66;1785622;80;21044;-93
2022/06/07 03:01:06;;;;;;;12.63;6.35;;;;;;;11.62;100.00;100304.55;1785213;80;21036;-92
2022/06/07 03:03:38;;;;;;;10.00;5.95;;;;;;;11.77;100.00;100307.91;1784812;80;21056;-92
2022/06/07 03:06:07;;;;;;;9.58;6.00;;;;;;;11.90;100.00;100302.59;1785488;80;21115;-91
2022/06/07 03:08:36;;;;;;;12.43;6.00;;;;;;;12.05;100.00;100300.25;1785820;80;21005;-91
2022/06/07 03:11:04;;;;;;;8.23;5.60;;;;;;;12.23;100.00;100306.10;1787773;80;21033;-92
2022/06/07 03:13:31;;;;;;;7.05;5.10;;;;;;;12.38;100.00;100298.88;1787992;80;21071;-91
2022/06/07 03:15:58;;;;;;;11.20;5.78;;;;;;;12.54;100.00;100294.28;1789178;80;21181;-93
2022/06/07 03:18:27;;;;;;;12.18;5.53;;;;;;;12.73;100.00;100299.16;1789591;79;21029;-90
2022/06/07 03:20:55;;;;;;;15.58;5.90;;;;;;;12.91;100.00;100303.27;1789702;79;20950;-90
2022/06/07 03:23:25;;;;;;;8.73;4.83;;;;;;;13.11;100.00;100299.27;1787305;79;21099;-92
2022/06/07 03:26:03;;;;;;;12.35;5.65;;;;;;;13.32;100.00;100299.23;1785529;80;21044;-91
2022/06/07 03:28:34;;;;;;;14.18;5.37;;;;;;;13.50;100.00;100298.39;1786437;80;22301;-91
2022/06/07 03:31:13;;;;;;;10.25;5.53;;;;;;;13.70;100.00;100305.88;1786349;80;21056;-92
2022/06/07 03:33:42;;;;;;;13.53;5.83;;;;;;;13.85;100.00;100303.84;1785499;80;21033;-89
2022/06/07 03:36:14;;;;;;;14.50;4.92;;;;;;;14.08;100.00;100300.52;1785698;80;21008;-92
2022/06/07 03:38:41;;;;;;;16.02;5.75;;;;;;;14.30;100.00;100297.20;1785964;80;21064;-91
2022/06/07 03:41:08;;;;;;;12.78;5.42;;;;;;;14.55;100.00;100294.69;1786190;80;21171;-91
2022/06/07 03:43:36;;;;;;;13.70;5.30;;;;;;;14.82;100.00;100297.25;1785683;80;21005;-90
2022/06/07 03:46:12;;;;;;;10.85;4.78;;;;;;;15.08;100.00;100291.89;1759656;80;20997;-91
2022/06/07 03:48:42;;;;;;;12.53;4.95;;;;;;;15.36;99.36;100288.23;1754655;81;21048;-92
2022/06/07 03:51:10;;;;;;;13.62;5.08;;;;;;;15.64;97.77;100292.88;1754644;81;21143;-91
2022/06/07 03:53:37;;;;;;;17.10;4.83;;;;;;;15.88;96.60;100288.89;1754676;81;21203;-91
2022/06/07 03:56:05;;;;;;;9.55;5.17;;;;;;;16.13;95.08;100292.34;1754836;81;21110;-91
2022/06/07 03:58:34;;;;;;;12.68;5.45;;;;;;;16.41;93.24;100296.05;1753876;81;21083;-91
2022/06/07 04:01:05;;;;;;;11.48;4.70;;;;;;;16.71;92.31;100296.51;1754887;81;21525;-92
2022/06/07 04:03:32;;;;;;;13.38;4.80;;;;;;;17.02;90.36;100288.02;1754293;81;21064;-91
2022/06/07 04:06:00;;;;;;;10.03;4.55;;;;;;;17.35;87.66;100283.28;1726950;81;21200;-92
2022/06/07 04:08:30;;;;;;;8.20;5.05;;;;;;;17.63;86.38;100290.84;1754960;81;21095;-89
2022/06/07 04:11:02;;;;;;;12.93;5.65;;;;;;;17.90;84.83;100284.26;1729403;80;21092;-90
2022/06/07 04:13:35;;;;;;;10.50;5.30;;;;;;;18.20;84.21;100281.39;1788655;80;20977;-90
2022/06/07 04:16:07;;;;;;;12.35;5.12;;;;;;;18.58;82.22;100285.94;1791671;80;21120;-90
2022/06/07 04:18:35;;;;;;;6.40;4.70;;;;;;;18.99;80.68;100290.28;1790191;80;21208;-88
2022/06/07 04:21:05;;;;;;;8.05;4.85;;;;;;;19.29;79.74;100289.09;1759251;81;21015;-90
2022/06/07 04:23:34;;;;;;;18.32;5.42;;;;;;;19.62;78.00;100284.96;1726955;83;21100;-91
2022/06/07 04:26:14;;;;;;;10.13;5.40;;;;;;;19.94;76.10;100282.64;1727279;83;21089;-90
2022/06/07 04:28:42;;;;;;;11.00;6.20;;;;;;;20.24;74.07;100282.17;1727356;83;21647;-92
2022/06/07 04:31:16;;;;;;;11.93;5.97;;;;;;;20.51;72.54;100278.40;1730064;83;21213;-92
2022/06/07 04:33:44;;;;;;;7.55;4.87;;;;;;;20.72;70.24;100282.13;1730371;83;20995;-91
2022/06/07 04:36:26;;;;;;;10.10;4.92;;;;;;;21.02;69.16;100283.39;1730394;83;21324;-93
2022/06/07 04:38:55;;;;;;;10.13;5.20;;;;;;;21.33;68.11;100283.67;1729928;81;20997;-92
2022/06/07 04:41:23;;;;;;;10.25;5.03;;;;;;;21.66;65.96;100285.48;1731535;81;76392;-73
2022/06/07 04:43:53;;;;;;;16.10;5.28;;;;;;;21.87;64.02;100281.54;1751167;81;21980;-70
2022/06/07 04:46:20;;;;;;;16.62;5.25;;;;;;;22.06;62.60;100279.53;1751325;81;21508;-71
2022/06/07 04:48:50;;;;;;;15.18;4.50;;;;;;;22.34;58.91;100279.47;1724209;81;21024;-71
2022/06/07 04:51:28;;;;;;;13.30;4.35;;;;;;;22.66;54.53;100274.56;1751359;81;21587;-70
2022/06/07 04:53:59;;;;;;;10.75;4.30;;;;;;;22.87;53.42;100276.36;1750710;81;21516;-71
2022/06/07 04:56:31;;;;;;;9.48;3.70;;;;;;;23.11;53.09;100272.08;1723971;81;21103;-71
2022/06/07 04:58:59;;;;;;;7.67;4.10;;;;;;;23.30;52.36;100278.87;1750858;81;21064;-71
2022/06/07 05:01:33;;;;;;;7.10;3.95;;;;;;;23.45;52.07;100273.99;1751640;81;21028;-71
2022/06/07 05:04:02;;;;;;;7.37;4.08;;;;;;;23.70;50.64;100277.19;1751380;81;21008;-71
2022/06/07 05:06:37;;;;;;;10.35;4.08;;;;;;;23.84;50.05;100280.84;1749877;81;21524;-72
2022/06/07 05:09:17;;;;;;;10.78;3.40;;;;;;;24.01;49.62;100270.73;1748491;82;21307;-71
2022/06/07 05:11:49;;;;;;;12.75;3.80;;;;;;;24.36;49.26;100277.40;1749863;82;21516;-71
2022/06/07 05:14:18;;;;;;;6.22;3.55;;;;;;;24.56;48.81;100282.82;1749830;81;21024;-72
2022/06/07 05:16:48;;;;;;;6.20;4.17;;;;;;;24.71;47.94;100281.39;1749650;82;21063;-71
2022/06/07 05:19:18;;;;;;;9.85;4.20;;;;;;;24.79;47.89;100289.58;1749892;82;21037;-72
2022/06/07 05:21:46;;;;;;;8.95;3.67;;;;;;;24.95;46.06;100288.98;1722740;82;21132;-73
2022/06/07 05:24:13;;;;;;;5.92;2.90;;;;;;;25.10;45.00;100290.22;1749816;82;21581;-72
2022/06/07 05:26:54;;;;;;;9.65;3.27;;;;;;;25.24;42.90;100296.17;1750171;82;21052;-70
2022/06/07 05:29:27;;;;;;;3.22;2.65;;;;;;;25.47;42.68;100292.09;1748852;82;21091;-72
2022/06/07 05:31:54;;;;;;;4.08;2.20;;;;;;;25.66;41.72;100291.14;1749894;82;21500;-72
2022/06/07 05:34:21;;;;;;;6.33;2.72;;;;;;;25.95;40.18;100287.43;1750174;82;21087;-72
2022/06/07 05:36:50;;;;;;;3.60;2.22;;;;;;;26.09;39.58;100288.27;1749632;82;21008;-73
2022/06/07 05:39:27;;;;;;;3.22;2.12;;;;;;;26.35;37.80;100283.45;1749965;82;21359;-72
2022/06/07 05:41:55;;;;;;;7.35;2.40;;;;;;;26.45;36.65;100285.55;1748582;81;21501;-72
2022/06/07 05:44:24;;;;;;;3.83;2.10;;;;;;;26.62;37.13;100288.41;1744246;81;21025;-72
2022/06/07 05:46:53;;;;;;;6.23;2.60;;;;;;;26.68;36.20;100287.28;1757581;81;21626;-72
2022/06/07 05:49:21;;;;;;;4.40;2.12;;;;;;;26.79;36.30;100283.48;1725922;82;21742;-71
2022/06/07 05:51:56;;;;;;;6.35;1.72;;;;;;;26.96;35.48;100282.61;1791988;78;21037;-71
2022/06/07 05:54:23;;;;;;;3.47;1.80;;;;;;;26.97;34.32;100281.59;1792850;80;21026;-71
2022/06/07 05:56:50;;;;;;;4.35;1.72;;;;;;;26.97;34.65;100276.18;1792485;80;21059;-72
2022/06/07 05:59:18;;;;;;;7.15;2.20;;;;;;;27.04;34.11;100278.25;1792826;79;21111;-72
2022/06/07 06:01:44;;;;;;;6.95;2.65;;;;;;;27.16;33.60;100276.96;1792718;79;21508;-71
2022/06/07 06:04:13;;;;;;;2.20;1.50;;;;;;;27.38;34.09;100276.44;1792597;79;21474;-72
2022/06/07 06:06:42;;;;;;;3.15;1.87;;;;;;;27.59;33.59;100277.87;1778399;80;21068;-71
2022/06/07 06:11:56;;;;;;;4.97;1.85;;;;;;;27.94;33.26;100275.97;1745519;81;21150;-71
2022/06/07 06:14:26;;;;;;;4.05;1.80;;;;;;;28.03;31.55;100271.75;1788381;80;21478;-71
2022/06/07 06:16:55;;;;;;;3.40;1.80;;;;;;;28.03;32.11;100270.40;1787882;80;21005;-73
2022/06/07 06:19:30;;;;;;;5.80;1.90;;;;;;;28.18;32.14;100269.73;1722447;83;21041;-73
2022/06/07 06:21:57;;;;;;;2.58;1.65;;;;;;;28.35;31.99;100269.26;1788357;80;21042;-73
2022/06/07 06:24:25;;;;;;;2.98;1.70;;;;;;;28.55;32.10;100269.29;1724251;83;21409;-72
2022/06/07 06:26:54;;;;;;;3.50;1.60;;;;;;;28.84;31.60;100269.24;1788469;80;21026;-72
2022/06/07 06:29:24;;;;;;;3.92;1.70;;;;;;;29.13;30.54;100274.65;1788602;80;21049;-72
2022/06/07 06:34:20;;;;;;;4.33;1.50;;;;;;;28.54;30.06;100270.29;1796456;79;22209;-72
2022/06/07 06:36:47;;;;;;;1.30;1.17;;;;;;;28.65;29.64;100267.75;1756185;81;21092;-73
2022/06/07 06:39:15;;;;;;;3.20;1.42;;;;;;;28.88;29.35;100258.41;1756321;81;21136;-73
2022/06/07 06:41:46;;;;;;;1.67;1.07;;;;;;;29.03;28.88;100263.94;1722906;83;21008;-73
2022/06/07 06:44:13;;;;;;;2.02;1.32;;;;;;;28.97;28.28;100265.50;1722715;83;21512;-72
2022/06/07 06:46:44;;;;;;;1.65;1.30;;;;;;;29.05;28.42;100254.61;1722720;83;21059;-72
2022/06/07 06:49:13;;;;;;;2.00;1.62;;;;;;;29.32;28.07;100257.95;1706094;83;21530;-73
2022/06/07 06:51:41;;;;;;;2.72;1.45;;;;;;;29.72;28.38;100250.66;1722977;83;21102;-72
2022/06/07 06:54:12;;;;;;;2.20;1.30;;;;;;;29.96;27.87;100251.55;1722739;83;21036;-73
2022/06/07 06:56:40;;;;;;;2.12;1.20;;;;;;;29.99;26.88;100241.69;1722685;83;21016;-73
2022/06/07 06:59:09;;;;;;;7.53;1.50;;;;;;;30.06;25.75;100239.94;1722376;83;21060;-72
2022/06/07 07:01:41;;;;;;;5.60;1.60;;;;;;;30.02;27.18;100244.86;1723035;83;21536;-72
2022/06/07 07:04:15;;;;;;;4.75;1.70;;;;;;;30.15;26.78;100236.13;1722855;83;21573;-71
2022/06/07 07:06:41;;;;;;;3.65;1.30;;;;;;;30.27;26.45;100238.77;1688124;85;21049;-71
2022/06/07 07:09:10;;;;;;;1.62;1.27;;;;;;;30.37;26.03;100234.95;1688377;85;21016;-71
2022/06/07 07:11:46;;;;;;;3.27;1.30;;;;;;;30.31;25.73;100231.11;1669051;86;21053;-72
2022/06/07 07:14:15;;;;;;;4.47;1.35;;;;;;;30.31;25.73;100231.11;1669346;86;21069;-70
2022/06/07 07:16:47;;;;;;;2.45;1.30;;;;;;;30.02;25.63;100229.09;1669041;86;21253;-72
2022/06/07 07:19:14;;;;;;;2.55;1.32;;;;;;;29.61;26.32;100241.05;1669278;86;21517;-72
2022/06/07 07:21:46;;;;;;;5.30;1.30;;;;;;;29.35;26.86;100244.03;1669112;86;21734;-71
2022/06/07 07:24:22;;;;;;;4.47;1.62;;;;;;;29.07;27.48;100244.47;1669347;86;21065;-72
2022/06/07 07:26:52;;;;;;;1.95;1.50;;;;;;;28.85;28.09;100239.78;1725647;83;21375;-71
2022/06/07 07:29:23;;;;;;;2.25;1.42;;;;;;;28.69;27.96;100235.72;1725766;82;22283;-71
2022/06/07 07:31:52;;;;;;;3.05;1.67;;;;;;;28.58;27.46;100241.84;1725714;83;21108;-70
2022/06/07 07:34:21;;;;;;;4.62;1.30;;;;;;;28.54;28.04;100233.72;1721275;83;21108;-71
2022/06/07 07:36:53;;;;;;;2.33;1.60;;;;;;;28.70;27.47;100245.56;1720602;82;21112;-72
2022/06/07 07:39:20;;;;;;;5.62;1.70;;;;;;;28.94;27.09;100242.81;1721070;83;21065;-73
2022/06/07 07:41:51;;;;;;;1.52;1.37;;;;;;;29.23;26.46;100244.09;1720602;82;21256;-72
2022/06/07 07:44:19;;;;;;;2.15;1.30;;;;;;;29.65;26.25;100244.23;1720476;83;21068;-72
2022/06/07 07:46:48;;;;;;;4.12;1.55;;;;;;;30.05;26.41;100239.61;1720302;82;22168;-71
2022/06/07 07:49:18;;;;;;;2.08;1.50;;;;;;;30.49;25.47;100237.58;1720340;83;22205;-72
2022/06/07 07:51:48;;;;;;;1.30;1.20;;;;;;;30.49;25.47;100237.58;1720169;83;21100;-72
2022/06/07 07:54:19;;;;;;;1.87;1.12;;;;;;;30.66;24.81;100235.55;1720338;83;21156;-71
2022/06/07 07:56:45;;;;;;;;;;;;;;;31.08;24.40;100230.88;1722848;83;21036;-72
2022/06/07 07:59:14;;;;;;;2.92;1.25;;;;;;;31.38;23.84;100241.70;1720337;83;20282;-73
2022/06/07 08:01:41;;;;;;;3.23;1.50;;;;;;;31.45;24.33;100237.25;1720579;82;21092;-72
2022/06/07 08:04:10;;;;;;;2.27;1.45;;;;;;;31.39;24.30;100239.33;1720040;83;21092;-73
2022/06/07 08:06:42;;;;;;;3.25;1.50;;;;;;;31.34;24.26;100232.27;1719684;83;21523;-71
2022/06/07 08:09:09;;;;;;;1.82;1.27;;;;;;;31.47;23.92;100232.47;1720185;83;21065;-70
2022/06/07 08:11:38;;;;;;;4.47;1.30;;;;;;;31.48;24.62;100228.70;1720146;83;21533;-71
2022/06/07 08:14:08;;;;;;;2.65;1.37;;;;;;;31.59;23.53;100229.23;1720361;83;21081;-72
2022/06/07 08:16:37;;;;;;;6.28;1.40;;;;;;;31.52;24.40;100227.81;1720277;82;21904;-73
2022/06/07 08:19:06;;;;;;;4.50;1.60;;;;;;;31.44;23.59;100223.30;1720152;83;21223;-72
2022/06/07 08:21:32;;;;;;;2.42;1.50;;;;;;;31.44;24.15;100229.27;1720209;83;21073;-72
2022/06/07 08:23:59;;;;;;;4.15;1.62;;;;;;;31.23;23.43;100227.30;1720533;82;21140;-73
2022/06/07 08:26:26;;;;;;;3.75;1.37;;;;;;;31.13;23.64;100231.16;1720377;83;21101;-72
2022/06/07 08:28:56;;;;;;;2.80;1.80;;;;;;;31.37;24.07;100225.07;1720361;83;21057;-72
2022/06/07 08:31:26;;;;;;;4.15;1.70;;;;;;;31.70;24.04;100220.56;1720120;83;21251;-72
2022/06/07 08:39:25;;;;;;;3.10;1.42;;;;;;;32.76;24.68;100218.86;1712229;83;21548;-73
2022/06/07 08:41:58;;;;;;;2.52;1.40;;;;;;;33.16;22.98;100220.47;1711872;83;21069;-71
2022/06/07 08:44:39;;;;;;;2.75;1.70;;;;;;;33.37;23.88;100215.95;1712443;83;21837;-72
2022/06/07 08:47:20;;;;;;;7.33;1.65;;;;;;;33.63;22.85;100213.33;1711978;83;21033;-72
2022/06/07 08:49:47;;;;;;;1.67;1.25;;;;;;;33.66;23.04;100214.83;1712421;83;21584;-71
2022/06/07 08:52:31;;;;;;;3.22;1.67;;;;;;;33.85;22.50;100216.75;1712133;83;21088;-72
2022/06/07 08:54:58;;;;;;;6.35;1.52;;;;;;;34.23;22.10;100211.25;1711827;83;21525;-73
2022/06/07 08:57:36;;;;;;;2.62;1.42;;;;;;;34.36;22.13;100222.19;1712264;83;21243;-71
2022/06/07 09:00:19;;;;;;;2.02;1.50;;;;;;;34.14;22.08;100222.07;1712416;83;21608;-73
2022/06/07 09:03:32;;;;;;;4.25;1.62;;;;;;;33.59;22.14;100213.44;1709025;83;21084;-73
2022/06/07 09:06:01;;;;;;;4.72;1.72;;;;;;;32.95;22.40;100212.36;1712173;83;21027;-73
2022/06/07 09:08:42;;;;;;;3.42;1.70;;;;;;;32.33;23.60;100208.02;1712264;83;21569;-72
2022/06/07 09:14:04;;;;;;;5.90;1.52;;;;;;;31.81;24.54;100210.53;1712084;83;21580;-72
2022/06/07 09:16:29;;;;;;;3.20;1.62;;;;;;;31.30;24.25;100220.06;1712044;83;21073;-72
2022/06/07 09:18:56;;;;;;;4.60;1.80;;;;;;;30.91;24.60;100217.13;1683818;83;21069;-72
2022/06/07 09:21:29;;;;;;;2.90;1.70;;;;;;;30.68;24.75;100207.14;1712209;83;21668;-73
2022/06/07 09:23:56;;;;;;;3.65;1.65;;;;;;;30.62;24.84;100209.27;1712213;83;21117;-72
2022/06/07 09:26:28;;;;;;;5.17;1.60;;;;;;;30.52;24.75;100204.07;1712107;83;21069;-73
2022/06/07 09:29:13;;;;;;;2.85;1.90;;;;;;;30.36;24.95;100199.32;1712187;83;21116;-72
2022/06/07 09:31:41;;;;;;;2.25;1.67;;;;;;;30.25;25.36;100200.08;1712153;83;21109;-72
2022/06/07 09:34:10;;;;;;;2.72;1.40;;;;;;;30.39;25.20;100197.09;1716136;83;21034;-72
2022/06/07 09:36:38;;;;;;;4.20;1.70;;;;;;;30.87;25.07;100195.42;1719696;83;21885;-72
2022/06/07 09:39:10;;;;;;;3.65;1.45;;;;;;;31.44;24.72;100192.01;1695424;83;21124;-72
2022/06/07 09:41:44;;;;;;;5.78;2.00;;;;;;;31.24;24.11;100189.53;1702703;83;21048;-71
2022/06/07 09:44:27;;;;;;;3.92;1.60;;;;;;;30.81;24.56;100197.00;1719857;82;21052;-72
2022/06/07 09:47:07;;;;;;;5.37;1.80;;;;;;;30.38;24.92;100194.55;1720533;82;21044;-71
2022/06/07 09:49:40;;;;;;;2.05;1.37;;;;;;;30.24;25.59;100194.30;1720190;83;21258;-74
2022/06/07 09:52:25;;;;;;;4.12;1.80;;;;;;;30.62;25.55;100190.23;1720163;83;21109;-73
2022/06/07 09:55:05;;;;;;;3.58;1.60;;;;;;;31.07;25.07;100188.91;1720269;83;21065;-72
2022/06/07 09:57:45;;;;;;;5.53;1.80;;;;;;;31.15;24.16;100185.57;1720207;82;21096;-73
2022/06/07 10:00:22;;;;;;;3.08;1.70;;;;;;;30.83;24.02;100185.91;1720328;82;21072;-73
2022/06/07 10:03:21;;;;;;;2.83;1.72;;;;;;;30.53;24.91;100177.77;1720060;83;21249;-72
2022/06/07 10:06:22;;;;;;;2.15;1.70;;;;;;;30.19;25.07;100178.23;1719774;82;21076;-73
2022/06/07 10:09:10;;;;;;;4.00;1.70;;;;;;;29.69;25.86;100172.33;1719899;83;21064;-74
2022/06/07 10:12:07;;;;;;;6.95;2.25;;;;;;;29.31;26.08;100175.40;1718728;82;21083;-73
2022/06/07 10:15:06;;;;;;;2.55;1.90;;;;;;;29.29;27.06;100174.24;1715272;83;21120;-74
2022/06/07 10:18:15;;;;;;;2.20;1.65;;;;;;;29.36;26.43;100181.16;1715235;83;21154;-72
2022/06/07 10:21:10;;;;;;;3.83;1.60;;;;;;;29.37;26.32;100168.75;1715435;83;21045;-73
2022/06/07 10:23:51;;;;;;;2.33;1.72;;;;;;;29.66;25.91;100157.22;1715594;83;21096;-73
2022/06/07 10:26:52;;;;;;;4.15;2.00;;;;;;;30.91;25.10;100153.23;1715806;83;21044;-74
2022/06/07 10:29:57;;;;;;;2.33;1.40;;;;;;;30.91;25.10;100153.23;1715673;83;21119;-73
2022/06/07 10:32:39;;;;;;;3.83;1.65;;;;;;;30.92;24.91;100156.27;1715622;83;21100;-74
2022/06/07 10:35:39;;;;;;;2.17;1.60;;;;;;;30.82;25.13;100148.89;1712694;83;21022;-74
2022/06/07 10:38:36;;;;;;;3.67;1.52;;;;;;;30.89;24.71;100152.58;1711358;83;21065;-73
2022/06/07 10:41:12;;;;;;;5.95;1.80;;;;;;;30.95;24.29;100155.91;1712142;83;21144;-74
2022/06/07 10:44:01;;;;;;;2.15;1.75;;;;;;;31.32;24.06;100144.02;1712304;83;21634;-72
2022/06/07 10:46:29;;;;;;;3.87;1.70;;;;;;;31.66;23.65;100142.54;1712250;83;21601;-72
2022/06/07 10:49:19;;;;;;;2.45;1.62;;;;;;;32.00;22.87;100134.17;1712146;83;21033;-74
2022/06/07 10:54:45;;;;;;;4.67;1.85;;;;;;;31.88;23.19;100127.55;1712070;83;21081;-73
2022/06/07 10:57:32;;;;;;;4.85;1.85;;;;;;;32.19;23.92;100129.95;1712174;83;21521;-72
2022/06/07 11:00:03;;;;;;;5.22;1.80;;;;;;;32.48;23.13;100128.03;1712305;83;21144;-74
2022/06/07 11:02:42;;;;;;;;;;;;;;;32.10;23.42;100133.86;1714518;83;21140;-73
2022/06/07 11:11:14;;;;;;;2.67;1.80;;;;;;;31.92;23.87;100128.32;1712099;83;21073;-72
2022/06/07 11:14:17;;;;;;;1.85;1.55;;;;;;;31.73;23.52;100118.11;1712100;83;21122;-73
2022/06/07 11:17:20;;;;;;;4.10;1.77;;;;;;;31.74;24.00;100111.61;1705560;83;21120;-72
2022/06/07 11:19:49;;;;;;;2.00;1.80;;;;;;;31.63;23.66;100112.13;1712176;83;20986;-72
2022/06/07 11:22:19;;;;;;;3.65;1.70;;;;;;;31.76;23.43;100108.17;1712783;83;21088;-72
2022/06/07 11:24:56;;;;;;;3.42;1.70;;;;;;;32.10;23.75;100103.89;1712353;83;21144;-72
2022/06/07 11:27:24;;;;;;;2.85;1.57;;;;;;;32.25;23.08;100099.69;1689689;83;21093;-72
2022/06/07 11:30:16;;;;;;;4.60;2.02;;;;;;;32.13;23.06;100099.40;1712216;83;21465;-73
2022/06/07 11:32:58;;;;;;;2.02;1.65;;;;;;;31.86;23.69;100104.59;1692796;83;21069;-72
2022/06/07 11:35:52;;;;;;;4.37;1.80;;;;;;;31.38;23.63;100100.22;1718655;83;21064;-72
2022/06/07 11:38:27;;;;;;;3.33;1.82;;;;;;;31.20;23.98;100103.39;1720394;83;21115;-71
2022/06/07 11:41:36;;;;;;;2.10;1.45;;;;;;;30.94;24.33;100098.47;1720748;82;21176;-75
2022/06/07 11:43:50;;;;;;;2.22;1.50;;;;;;;30.73;25.02;100090.54;1717221;83;21593;-73
2022/06/07 11:46:38;;;;;;;6.28;1.95;;;;;;;30.77;25.54;100094.26;1720549;82;21065;-73
2022/06/07 11:49:27;;;;;;;4.17;2.00;;;;;;;31.00;25.06;100088.20;1720337;83;21141;-73
2022/06/07 11:52:19;;;;;;;1.90;1.50;;;;;;;31.41;24.99;100086.28;1720448;82;21059;-72
2022/06/07 11:54:54;;;;;;;2.77;1.60;;;;;;;31.64;24.40;100082.00;1720606;83;21243;-72
2022/06/07 11:57:57;;;;;;;5.72;1.62;;;;;;;31.76;24.12;100078.23;1720533;82;21017;-72
2022/06/07 12:00:36;;;;;;;3.33;1.60;;;;;;;31.91;24.17;100075.41;1720490;82;21052;-72
2022/06/07 12:03:12;;;;;;;4.58;1.60;;;;;;;32.17;24.20;100069.36;1720459;83;21616;-72
2022/06/07 12:05:42;;;;;;;2.20;1.70;;;;;;;32.34;23.41;100070.71;1720530;83;21317;-73
2022/06/07 12:08:37;;;;;;;1.67;1.45;;;;;;;32.38;23.17;100068.44;1720363;83;21618;-72
2022/06/07 12:11:22;;;;;;;2.87;1.65;;;;;;;32.32;23.25;100067.34;1720566;83;21085;-72
2022/06/07 12:14:31;;;;;;;5.60;1.50;;;;;;;32.19;23.21;100059.11;1720577;83;21510;-72
2022/06/07 12:17:03;;;;;;;3.20;1.60;;;;;;;31.93;23.56;100059.22;1720256;83;21080;-72